Estación Meteorológica Peña el Pijo (Robertgarden) [ 01/30/23 15:06:03 CET ]

Fecha Hora Presion(HPa) Temp (°C) Humedad % Rocio (°C) Viento ( m/s) Direccion Lluvia 1Hora(mm) Lluvia 24H(mm) LLuvia Total(mm)
2010-Sep-09 01:01:14 1013.300 10.6 65 4.3         156.43
2010-Sep-09 02:01:11 1013.300 10.1 69 4.7         156.43
2010-Sep-09 03:01:12 1013.500 9.5 73 4.9         156.43
2010-Sep-09 04:01:12 1013.700 9.4 71 4.4         156.43
2010-Sep-09 05:01:14 1013.900 9.4 70 4.2         156.43
2010-Sep-09 06:01:16 1014.100 8.2 74 3.8         156.43
2010-Sep-09 07:01:13 1014.100 7.6 76 3.6         156.43
2010-Sep-09 08:01:19 1014.800 7.2 78 3.4         156.43
2010-Sep-09 09:01:16 1015.000 9.9 78 6.2         156.43
2010-Sep-09 10:01:18 1015.100 17.5 54 8.0         156.43
2010-Sep-09 11:01:14 1016.000 21.8 39 7.2         156.43
2010-Sep-09 12:01:17 1016.000 23.8 33 6.5         156.43
2010-Sep-09 13:01:12 1016.200 25.9 28 5.9         156.43
2010-Sep-09 14:01:16 1016.000 27.0 23 3.9         156.43
2010-Sep-09 15:01:16 1015.500 28.4 22 4.5         156.43
2010-Sep-09 16:01:16 1015.100 29.6 21 4.9         156.43
2010-Sep-09 17:01:33 1014.700 30.4 21 5.5 0.9 NE     156.43
2010-Sep-09 18:01:33 1014.900 28.8 21 4.2         156.43
2010-Sep-09 19:01:28 1015.200 25.3 25 3.6         156.43
2010-Sep-09 20:01:28 1015.200 21.9 32 4.4         156.43
2010-Sep-09 21:01:16 1015.800 19.5 37 4.3         156.43
2010-Sep-09 22:01:16 1016.800 16.9 45 4.8         156.43
2010-Sep-09 23:01:16 1017.500 13.9 54 4.7         156.43

Temperatura Máxima:30°    Temperatura Mínima:
Presión Máxima:1017.500 Hpa    Presión Mínima:1013.300 Hpa


Volver